createdAt,value
2017-04-06T00:00:13.735Z,2.6
2017-04-06T00:00:32.394Z,2.7
2017-04-06T00:00:51.053Z,2.7
2017-04-06T00:01:09.727Z,2.7
2017-04-06T00:01:28.380Z,2.7
2017-04-06T00:01:47.046Z,2.7
2017-04-06T00:02:05.710Z,2.7
2017-04-06T00:02:24.383Z,2.7
2017-04-06T00:02:43.063Z,2.7
2017-04-06T00:03:01.710Z,2.7
2017-04-06T00:03:20.372Z,2.7
2017-04-06T00:03:39.034Z,2.7
2017-04-06T00:03:57.697Z,2.7
2017-04-06T00:04:16.349Z,2.7
2017-04-06T00:04:35.003Z,2.7
2017-04-06T00:04:53.653Z,2.6
2017-04-06T00:05:12.303Z,2.7
2017-04-06T00:05:30.959Z,2.7
2017-04-06T00:05:49.634Z,2.7
2017-04-06T00:06:08.289Z,2.7
2017-04-06T00:06:26.947Z,2.7
2017-04-06T00:06:45.600Z,2.7
2017-04-06T00:07:04.257Z,2.6
2017-04-06T00:07:22.906Z,2.6
2017-04-06T00:07:41.567Z,2.6
2017-04-06T00:08:00.217Z,2.6
2017-04-06T00:08:18.867Z,2.6
2017-04-06T00:08:37.515Z,2.6
2017-04-06T00:08:56.166Z,2.6
2017-04-06T00:09:14.831Z,2.7
2017-04-06T00:09:33.486Z,2.7
2017-04-06T00:09:52.139Z,2.7
2017-04-06T00:10:10.803Z,2.6
2017-04-06T00:10:29.463Z,2.6
2017-04-06T00:10:48.117Z,2.6
2017-04-06T00:11:06.775Z,2.6
2017-04-06T00:11:25.431Z,2.6
2017-04-06T00:11:44.077Z,2.6
2017-04-06T00:12:02.735Z,2.6
2017-04-06T00:12:21.384Z,2.6
2017-04-06T00:12:40.035Z,2.6
2017-04-06T00:12:58.710Z,2.6
2017-04-06T00:13:17.368Z,2.6
2017-04-06T00:13:36.028Z,2.6
2017-04-06T00:13:54.714Z,2.6
2017-04-06T00:14:13.370Z,2.6
2017-04-06T00:14:32.018Z,2.6
2017-04-06T00:14:50.672Z,2.5
2017-04-06T00:15:09.327Z,2.5
2017-04-06T00:15:28.028Z,2.5
2017-04-06T00:15:46.686Z,2.5
2017-04-06T00:16:05.337Z,2.5
2017-04-06T00:16:23.991Z,2.5
2017-04-06T00:16:42.639Z,2.5
2017-04-06T00:17:01.291Z,2.5
2017-04-06T00:17:19.947Z,2.5
2017-04-06T00:17:38.600Z,2.5
2017-04-06T00:17:57.243Z,2.5
2017-04-06T00:18:15.917Z,2.5
2017-04-06T00:18:34.584Z,2.5
2017-04-06T00:18:53.232Z,2.5
2017-04-06T00:19:11.880Z,2.5
2017-04-06T00:19:30.524Z,2.5
2017-04-06T00:19:49.174Z,2.5
2017-04-06T00:20:07.831Z,2.5
2017-04-06T00:20:26.479Z,2.5
2017-04-06T00:20:45.127Z,2.5
2017-04-06T00:21:03.774Z,2.5
2017-04-06T00:21:22.432Z,2.5
2017-04-06T00:21:41.080Z,2.5
2017-04-06T00:21:59.755Z,2.5
2017-04-06T00:22:18.402Z,2.5
2017-04-06T00:22:37.050Z,2.5
2017-04-06T00:22:55.700Z,2.5
2017-04-06T00:23:14.348Z,2.5
2017-04-06T00:23:33.060Z,2.5
2017-04-06T00:23:51.705Z,2.5
2017-04-06T00:24:10.352Z,2.5
2017-04-06T00:24:28.998Z,2.5
2017-04-06T00:24:47.643Z,2.5
2017-04-06T00:25:06.295Z,2.4
2017-04-06T00:25:24.939Z,2.4
2017-04-06T00:25:43.590Z,2.4
2017-04-06T00:26:02.248Z,2.4
2017-04-06T00:26:20.899Z,2.4
2017-04-06T00:26:39.573Z,2.4
2017-04-06T00:26:58.224Z,2.5
2017-04-06T00:27:16.875Z,2.5
2017-04-06T00:27:35.521Z,2.5
2017-04-06T00:27:54.175Z,2.5
2017-04-06T00:28:12.815Z,2.5
2017-04-06T00:28:31.458Z,2.5
2017-04-06T00:28:50.122Z,2.5
2017-04-06T00:29:08.784Z,2.5
2017-04-06T00:29:27.430Z,2.5
2017-04-06T00:29:46.078Z,2.6
2017-04-06T00:30:04.741Z,2.6
2017-04-06T00:30:23.391Z,2.6
2017-04-06T00:30:42.068Z,2.6
2017-04-06T00:31:00.724Z,2.6
2017-04-06T00:31:19.386Z,2.5
2017-04-06T00:31:38.035Z,2.5
2017-04-06T00:31:56.682Z,2.5
2017-04-06T00:32:15.345Z,2.5
2017-04-06T00:32:33.995Z,2.5
2017-04-06T00:32:52.640Z,2.5
2017-04-06T00:33:11.295Z,2.5
2017-04-06T00:33:29.941Z,2.5
2017-04-06T00:33:48.586Z,2.5
2017-04-06T00:34:07.259Z,2.5
2017-04-06T00:34:25.911Z,2.5
2017-04-06T00:34:44.590Z,2.5
2017-04-06T00:35:03.241Z,2.5
2017-04-06T00:35:21.901Z,2.4
2017-04-06T00:35:40.554Z,2.4
2017-04-06T00:35:59.207Z,2.4
2017-04-06T00:36:17.858Z,2.4
2017-04-06T00:36:36.504Z,2.3
2017-04-06T00:36:55.151Z,2.3
2017-04-06T00:37:13.808Z,2.3
2017-04-06T00:37:32.466Z,2.3
2017-04-06T00:37:51.115Z,2.2
2017-04-06T00:38:09.769Z,2.2
2017-04-06T00:38:28.418Z,2.2
2017-04-06T00:38:47.074Z,2.2
2017-04-06T00:39:05.723Z,2.1
2017-04-06T00:39:24.396Z,2.1
2017-04-06T00:39:43.050Z,2.1
2017-04-06T00:40:01.706Z,2.1
2017-04-06T00:40:20.347Z,2.1
2017-04-06T00:40:39.000Z,2.1
2017-04-06T00:40:57.651Z,2.1
2017-04-06T00:41:16.297Z,2.1
2017-04-06T00:41:34.946Z,2.1
2017-04-06T00:41:53.598Z,2.1
2017-04-06T00:42:12.256Z,2.1
2017-04-06T00:42:30.907Z,2
2017-04-06T00:42:49.579Z,2
2017-04-06T00:43:08.244Z,2.1
2017-04-06T00:43:26.896Z,2
2017-04-06T00:43:45.540Z,2
2017-04-06T00:44:04.183Z,2
2017-04-06T00:44:22.860Z,2.1
2017-04-06T00:44:41.531Z,2.1
2017-04-06T00:45:00.176Z,2.1
2017-04-06T00:45:18.826Z,2.1
2017-04-06T00:45:37.480Z,2.1
2017-04-06T00:45:56.153Z,2.1
2017-04-06T00:46:14.808Z,2.1
2017-04-06T00:46:33.480Z,2.1
2017-04-06T00:46:52.128Z,2.1
2017-04-06T00:47:10.784Z,2.1
2017-04-06T00:47:29.471Z,2.1
2017-04-06T00:47:48.127Z,2.1
2017-04-06T00:48:06.777Z,2.1
2017-04-06T00:48:25.436Z,2.1
2017-04-06T00:48:44.086Z,2.1
2017-04-06T00:49:02.741Z,2.1
2017-04-06T00:49:21.394Z,2.1
2017-04-06T00:49:40.050Z,2.1
2017-04-06T00:49:58.705Z,2.1
2017-04-06T00:50:17.364Z,2.1
2017-04-06T00:50:36.018Z,2.1
2017-04-06T00:50:54.674Z,2.1
2017-04-06T00:51:13.319Z,2.2
2017-04-06T00:51:31.962Z,2.2
2017-04-06T00:51:50.611Z,2.2
2017-04-06T00:52:09.264Z,2.2
2017-04-06T00:52:27.929Z,2.2
2017-04-06T00:52:46.576Z,2.2
2017-04-06T00:53:05.234Z,2.2
2017-04-06T00:53:23.891Z,2.2
2017-04-06T00:53:42.542Z,2.2
2017-04-06T00:54:01.196Z,2.2
2017-04-06T00:54:19.853Z,2.2
2017-04-06T00:54:38.499Z,2.2
2017-04-06T00:54:57.153Z,2.2
2017-04-06T00:55:15.835Z,2.2
2017-04-06T00:55:34.520Z,2.2
2017-04-06T00:55:53.179Z,2.2
2017-04-06T00:56:11.830Z,2.2
2017-04-06T00:56:30.484Z,2.2
2017-04-06T00:56:49.134Z,2.2
2017-04-06T00:57:07.820Z,2.2
2017-04-06T00:57:26.473Z,2.2
2017-04-06T00:57:45.138Z,2.2
2017-04-06T00:58:03.785Z,2.2
2017-04-06T00:58:22.435Z,2.2
2017-04-06T00:58:41.091Z,2.2
2017-04-06T00:58:59.745Z,2.2
2017-04-06T00:59:18.393Z,2.2
2017-04-06T00:59:37.051Z,2.2
2017-04-06T00:59:55.705Z,2.2
2017-04-06T01:00:14.380Z,2.2
2017-04-06T01:00:33.066Z,2.2
2017-04-06T01:00:51.719Z,2.2
2017-04-06T01:01:10.378Z,2.2
2017-04-06T01:01:29.027Z,2.2
2017-04-06T01:01:47.683Z,2.2
2017-04-06T01:02:06.334Z,2.2
2017-04-06T01:02:24.987Z,2.2
2017-04-06T01:02:43.643Z,2.2
2017-04-06T01:03:02.293Z,2.2
2017-04-06T01:03:20.944Z,2.2
2017-04-06T01:03:39.611Z,2.2
2017-04-06T01:03:58.261Z,2.2
2017-04-06T01:04:16.906Z,2.2
2017-04-06T01:04:35.554Z,2.2
2017-04-06T01:04:54.215Z,2.2
2017-04-06T01:05:12.875Z,2.2
2017-04-06T01:05:31.530Z,2.2
2017-04-06T01:05:50.196Z,2.2
2017-04-06T01:06:08.850Z,2.2
2017-04-06T01:06:27.505Z,2.2
2017-04-06T01:06:46.156Z,2.2
2017-04-06T01:07:04.809Z,2.2
2017-04-06T01:07:23.457Z,2.2
2017-04-06T01:07:42.116Z,2.2
2017-04-06T01:08:00.765Z,2.2
2017-04-06T01:08:19.446Z,2.2
2017-04-06T01:08:38.086Z,2.2
2017-04-06T01:08:56.738Z,2.2
2017-04-06T01:09:15.394Z,2.2
2017-04-06T01:09:34.045Z,2.3
2017-04-06T01:09:52.703Z,2.3
2017-04-06T01:10:11.349Z,2.3
2017-04-06T01:10:30.000Z,2.3
2017-04-06T01:10:48.646Z,2.3
2017-04-06T01:11:07.309Z,2.3
2017-04-06T01:11:25.965Z,2.3
2017-04-06T01:11:44.629Z,2.2
2017-04-06T01:12:03.290Z,2.2
2017-04-06T01:12:21.947Z,2.3
2017-04-06T01:12:40.590Z,2.3
2017-04-06T01:12:59.252Z,2.3
2017-04-06T01:13:17.902Z,2.3
2017-04-06T01:13:36.549Z,2.3
2017-04-06T01:13:55.206Z,2.4
2017-04-06T01:14:13.858Z,2.4
2017-04-06T01:14:32.507Z,2.4
2017-04-06T01:14:51.173Z,2.5
2017-04-06T01:15:09.814Z,2.5
2017-04-06T01:15:28.462Z,2.5
2017-04-06T01:15:47.106Z,2.6
2017-04-06T01:16:05.756Z,2.7
2017-04-06T01:16:24.484Z,2.7
2017-04-06T01:16:43.151Z,2.7
2017-04-06T01:17:01.797Z,2.8
2017-04-06T01:17:20.450Z,2.9
2017-04-06T01:17:39.097Z,2.9
2017-04-06T01:17:57.789Z,3
2017-04-06T01:18:16.431Z,3
2017-04-06T01:18:35.072Z,3
2017-04-06T01:18:53.727Z,3.1
2017-04-06T01:19:12.375Z,3.1
2017-04-06T01:19:31.029Z,3.1
2017-04-06T01:19:49.689Z,3.1
2017-04-06T01:20:08.342Z,3.1
2017-04-06T01:20:26.991Z,3.1
2017-04-06T01:20:45.647Z,3.1
2017-04-06T01:21:04.329Z,3.1
2017-04-06T01:21:22.985Z,3.1
2017-04-06T01:21:41.639Z,3.1
2017-04-06T01:22:00.300Z,3.2
2017-04-06T01:22:18.954Z,3.2
2017-04-06T01:22:37.612Z,3.2
2017-04-06T01:22:56.257Z,3.2
2017-04-06T01:23:14.912Z,3.2
2017-04-06T01:23:33.574Z,3.2
2017-04-06T01:23:52.224Z,3.2
2017-04-06T01:24:10.862Z,3.2
2017-04-06T01:24:29.521Z,3.2
2017-04-06T01:24:48.171Z,3.2
2017-04-06T01:25:06.817Z,3.2
2017-04-06T01:25:25.466Z,3.1
2017-04-06T01:25:44.123Z,3.1
2017-04-06T01:26:02.794Z,3.1
2017-04-06T01:26:21.445Z,3.1
2017-04-06T01:26:40.098Z,3
2017-04-06T01:26:58.768Z,3
2017-04-06T01:27:17.427Z,3
2017-04-06T01:27:36.077Z,3
2017-04-06T01:27:54.731Z,3
2017-04-06T01:28:13.383Z,3
2017-04-06T01:28:32.040Z,3
2017-04-06T01:28:50.690Z,3
2017-04-06T01:29:09.365Z,3
2017-04-06T01:29:28.012Z,3
2017-04-06T01:29:46.656Z,3
2017-04-06T01:30:05.303Z,3.1
2017-04-06T01:30:23.952Z,3.1
2017-04-06T01:30:42.596Z,3.2
2017-04-06T01:31:01.249Z,3.2
2017-04-06T01:31:19.895Z,3.3
2017-04-06T01:31:38.570Z,3.3
2017-04-06T01:31:57.221Z,3.3
2017-04-06T01:32:15.878Z,3.3
2017-04-06T01:32:34.533Z,3.4
2017-04-06T01:32:53.188Z,3.4
2017-04-06T01:33:11.833Z,3.4
2017-04-06T01:33:30.485Z,3.4
2017-04-06T01:33:49.150Z,3.4
2017-04-06T01:34:07.792Z,3.5
2017-04-06T01:34:26.448Z,3.5
2017-04-06T01:34:45.100Z,3.5
2017-04-06T01:35:03.747Z,3.5
2017-04-06T01:35:22.397Z,3.5
2017-04-06T01:35:41.053Z,3.5
2017-04-06T01:35:59.705Z,3.5
2017-04-06T01:36:18.355Z,3.6
2017-04-06T01:36:37.005Z,3.6
2017-04-06T01:36:55.660Z,3.6
2017-04-06T01:37:14.348Z,3.6
2017-04-06T01:37:33.031Z,3.6
2017-04-06T01:37:51.685Z,3.6
2017-04-06T01:38:10.337Z,3.6
2017-04-06T01:38:28.984Z,3.6
2017-04-06T01:38:47.662Z,3.6
2017-04-06T01:39:06.316Z,3.6
2017-04-06T01:39:24.970Z,3.7
2017-04-06T01:39:43.622Z,3.6
2017-04-06T01:40:02.270Z,3.6
2017-04-06T01:40:20.925Z,3.6
2017-04-06T01:40:39.578Z,3.6
2017-04-06T01:40:58.228Z,3.6
2017-04-06T01:41:16.873Z,3.7
2017-04-06T01:41:35.523Z,3.7
2017-04-06T01:41:54.207Z,3.6
2017-04-06T01:42:12.861Z,3.7
2017-04-06T01:42:31.511Z,3.7
2017-04-06T01:42:50.167Z,3.7
2017-04-06T01:43:08.820Z,3.7
2017-04-06T01:43:27.467Z,3.7
2017-04-06T01:43:46.115Z,3.7
2017-04-06T01:44:04.773Z,3.7
2017-04-06T01:44:23.420Z,3.7
2017-04-06T01:44:42.078Z,3.7
2017-04-06T01:45:00.732Z,3.7
2017-04-06T01:45:19.402Z,3.7
2017-04-06T01:45:38.053Z,3.7
2017-04-06T01:45:56.712Z,3.7
2017-04-06T01:46:15.368Z,3.8
2017-04-06T01:46:34.028Z,3.8
2017-04-06T01:46:52.718Z,3.8
2017-04-06T01:47:11.369Z,3.8
2017-04-06T01:47:30.023Z,3.8
2017-04-06T01:47:48.678Z,3.8
2017-04-06T01:48:07.347Z,3.8
2017-04-06T01:48:25.998Z,3.8
2017-04-06T01:48:44.657Z,3.8
2017-04-06T01:49:03.311Z,3.8
2017-04-06T01:49:21.961Z,3.8
2017-04-06T01:49:40.613Z,3.8
2017-04-06T01:49:59.289Z,3.8
2017-04-06T01:50:17.943Z,3.8
2017-04-06T01:50:36.598Z,3.8
2017-04-06T01:50:55.263Z,3.8
2017-04-06T01:51:13.910Z,3.8
2017-04-06T01:51:32.587Z,3.8
2017-04-06T01:51:51.241Z,3.8
2017-04-06T01:52:09.887Z,3.9
2017-04-06T01:52:28.541Z,3.9
2017-04-06T01:52:47.198Z,3.9
2017-04-06T01:53:05.840Z,3.9
2017-04-06T01:53:24.497Z,3.9
2017-04-06T01:53:43.153Z,3.9
2017-04-06T01:54:01.810Z,3.9
2017-04-06T01:54:20.462Z,3.9
2017-04-06T01:54:39.145Z,3.9
2017-04-06T01:54:57.801Z,3.9
2017-04-06T01:55:16.459Z,3.9
2017-04-06T01:55:35.111Z,3.9
2017-04-06T01:55:53.760Z,3.9
2017-04-06T01:56:12.410Z,3.9
2017-04-06T01:56:31.054Z,3.9
2017-04-06T01:56:49.710Z,3.9
2017-04-06T01:57:08.362Z,3.9
2017-04-06T01:57:27.011Z,3.9
2017-04-06T01:57:45.668Z,3.9
2017-04-06T01:58:04.342Z,3.9
2017-04-06T01:58:22.989Z,3.9
2017-04-06T01:58:41.663Z,3.9
2017-04-06T01:59:00.322Z,3.9
2017-04-06T01:59:18.985Z,3.9
2017-04-06T01:59:37.636Z,3.9
2017-04-06T01:59:56.289Z,3.9
2017-04-06T02:00:14.941Z,3.9
2017-04-06T02:00:33.587Z,3.9
2017-04-06T02:00:52.238Z,3.9
2017-04-06T02:01:10.891Z,3.9
2017-04-06T02:01:29.536Z,3.9
2017-04-06T02:01:48.182Z,3.9
2017-04-06T02:02:06.850Z,3.9
2017-04-06T02:02:25.504Z,3.9
2017-04-06T02:02:44.174Z,3.9
2017-04-06T02:03:02.827Z,4
2017-04-06T02:03:21.473Z,3.9
2017-04-06T02:03:40.131Z,3.9
2017-04-06T02:03:58.794Z,4
2017-04-06T02:04:17.445Z,3.9
2017-04-06T02:04:36.088Z,3.9
2017-04-06T02:04:54.734Z,3.9
2017-04-06T02:05:13.391Z,3.9
2017-04-06T02:05:32.047Z,3.9
2017-04-06T02:05:50.702Z,3.9
2017-04-06T02:06:09.350Z,3.9
2017-04-06T02:06:28.000Z,3.9
2017-04-06T02:06:46.650Z,4
2017-04-06T02:07:05.293Z,4
2017-04-06T02:07:23.947Z,4
2017-04-06T02:07:42.608Z,4
2017-04-06T02:08:01.260Z,4
2017-04-06T02:08:19.915Z,4
2017-04-06T02:08:38.558Z,4
2017-04-06T02:08:57.198Z,4
2017-04-06T02:09:15.874Z,4
2017-04-06T02:09:34.536Z,4
2017-04-06T02:09:53.183Z,4
2017-04-06T02:10:11.837Z,4
2017-04-06T02:10:30.483Z,4
2017-04-06T02:10:49.169Z,4
2017-04-06T02:11:07.814Z,4
2017-04-06T02:11:26.466Z,4
2017-04-06T02:11:45.113Z,4
2017-04-06T02:12:03.763Z,4
2017-04-06T02:12:22.420Z,4
2017-04-06T02:12:41.066Z,4
2017-04-06T02:12:59.730Z,4
2017-04-06T02:13:18.392Z,4
2017-04-06T02:13:37.045Z,4
2017-04-06T02:13:55.705Z,4
2017-04-06T02:14:14.356Z,4
2017-04-06T02:14:33.021Z,4
2017-04-06T02:14:51.676Z,4
2017-04-06T02:15:10.319Z,4
2017-04-06T02:15:28.991Z,4
2017-04-06T02:15:47.643Z,4
2017-04-06T02:16:06.293Z,4
2017-04-06T02:16:24.938Z,4
2017-04-06T02:16:43.586Z,4
2017-04-06T02:17:02.241Z,4
2017-04-06T02:17:20.896Z,4
2017-04-06T02:17:39.552Z,4
2017-04-06T02:17:58.195Z,4
2017-04-06T02:18:16.843Z,4
2017-04-06T02:18:35.498Z,4
2017-04-06T02:18:54.178Z,4
2017-04-06T02:19:12.825Z,4
2017-04-06T02:19:31.474Z,4
2017-04-06T02:19:50.153Z,4
2017-04-06T02:20:08.803Z,4
2017-04-06T02:20:27.482Z,4
2017-04-06T02:20:46.129Z,4
2017-04-06T02:21:04.784Z,4
2017-04-06T02:21:23.437Z,4
2017-04-06T02:21:42.087Z,4
2017-04-06T02:22:00.748Z,4
2017-04-06T02:22:19.406Z,4
2017-04-06T02:22:38.058Z,4
2017-04-06T02:22:56.697Z,4
2017-04-06T02:23:15.349Z,4
2017-04-06T02:23:34.033Z,4
2017-04-06T02:23:52.688Z,4
2017-04-06T02:24:11.340Z,4
2017-04-06T02:24:29.997Z,4
2017-04-06T02:24:48.650Z,4
2017-04-06T02:25:07.328Z,4
2017-04-06T02:25:25.980Z,4
2017-04-06T02:25:44.628Z,4
2017-04-06T02:26:03.286Z,4
2017-04-06T02:26:21.942Z,4
2017-04-06T02:26:40.590Z,4
2017-04-06T02:26:59.254Z,4
2017-04-06T02:27:17.903Z,4
2017-04-06T02:27:36.550Z,4
2017-04-06T02:27:55.198Z,4
2017-04-06T02:28:13.861Z,4
2017-04-06T02:28:32.520Z,4
2017-04-06T02:28:51.182Z,4
2017-04-06T02:29:09.835Z,4
2017-04-06T02:29:28.487Z,4
2017-04-06T02:29:47.142Z,4
2017-04-06T02:30:05.791Z,4
2017-04-06T02:30:24.452Z,4
2017-04-06T02:30:43.102Z,4
2017-04-06T02:31:01.767Z,4
2017-04-06T02:31:20.418Z,4
2017-04-06T02:31:39.097Z,4
2017-04-06T02:31:57.739Z,4
2017-04-06T02:32:16.387Z,4
2017-04-06T02:32:35.066Z,4
2017-04-06T02:32:53.719Z,4
2017-04-06T02:33:12.382Z,4
2017-04-06T02:33:31.031Z,4
2017-04-06T02:33:49.686Z,4
2017-04-06T02:34:08.335Z,4
2017-04-06T02:34:26.985Z,4
2017-04-06T02:34:45.636Z,4
2017-04-06T02:35:04.293Z,4
2017-04-06T02:35:22.944Z,4
2017-04-06T02:35:41.618Z,4
2017-04-06T02:36:00.261Z,4
2017-04-06T02:36:18.928Z,4
2017-04-06T02:36:37.570Z,4
2017-04-06T02:36:56.217Z,4
2017-04-06T02:37:14.873Z,4
2017-04-06T02:37:33.534Z,4
2017-04-06T02:37:52.188Z,4
2017-04-06T02:38:10.838Z,4
2017-04-06T02:38:29.492Z,4
2017-04-06T02:38:48.150Z,4
2017-04-06T02:39:06.804Z,4
2017-04-06T02:39:25.463Z,4
2017-04-06T02:39:44.133Z,4
2017-04-06T02:40:02.782Z,4
2017-04-06T02:40:21.431Z,4
2017-04-06T02:40:40.091Z,4
2017-04-06T02:40:58.750Z,4
2017-04-06T02:41:17.429Z,4
2017-04-06T02:41:36.075Z,4
2017-04-06T02:41:54.734Z,4
2017-04-06T02:42:13.383Z,4
2017-04-06T02:42:32.029Z,4
2017-04-06T02:42:50.688Z,4
2017-04-06T02:43:09.344Z,4
2017-04-06T02:43:27.994Z,4
2017-04-06T02:43:46.643Z,4
2017-04-06T02:44:05.291Z,4
2017-04-06T02:44:23.969Z,4
2017-04-06T02:44:42.628Z,4
2017-04-06T02:45:01.279Z,4
2017-04-06T02:45:19.933Z,4
2017-04-06T02:45:38.584Z,4
2017-04-06T02:45:57.236Z,4
2017-04-06T02:46:15.914Z,4
2017-04-06T02:46:34.567Z,4
2017-04-06T02:46:53.219Z,4
2017-04-06T02:47:11.870Z,4
2017-04-06T02:47:30.525Z,4
2017-04-06T02:47:49.206Z,4
2017-04-06T02:48:07.863Z,4
2017-04-06T02:48:26.517Z,4
2017-04-06T02:48:45.175Z,4
2017-04-06T02:49:03.835Z,4
2017-04-06T02:49:22.487Z,4
2017-04-06T02:49:41.136Z,4
2017-04-06T02:49:59.788Z,4
2017-04-06T02:50:18.445Z,4
2017-04-06T02:50:37.090Z,4
2017-04-06T02:50:55.749Z,4
2017-04-06T02:51:14.404Z,4
2017-04-06T02:51:33.097Z,4
2017-04-06T02:51:51.750Z,4
2017-04-06T02:52:10.406Z,4
2017-04-06T02:52:29.093Z,4
2017-04-06T02:52:47.743Z,4
2017-04-06T02:53:06.399Z,4
2017-04-06T02:53:25.050Z,4
2017-04-06T02:53:43.704Z,4
2017-04-06T02:54:02.386Z,4
2017-04-06T02:54:21.038Z,4
2017-04-06T02:54:39.690Z,4
2017-04-06T02:54:58.356Z,4
2017-04-06T02:55:17.003Z,4
2017-04-06T02:55:35.660Z,4
2017-04-06T02:55:54.309Z,4
2017-04-06T02:56:12.962Z,4
2017-04-06T02:56:31.606Z,4
2017-04-06T02:56:50.282Z,4
2017-04-06T02:57:08.954Z,4
2017-04-06T02:57:27.615Z,4
2017-04-06T02:57:46.265Z,4
2017-04-06T02:58:04.913Z,4
2017-04-06T02:58:23.568Z,4
2017-04-06T02:58:42.218Z,4
2017-04-06T02:59:00.887Z,4
2017-04-06T02:59:19.545Z,4
2017-04-06T02:59:38.199Z,4
2017-04-06T02:59:56.850Z,4
2017-04-06T03:00:15.490Z,4
2017-04-06T03:00:34.141Z,4
2017-04-06T03:00:52.804Z,4
2017-04-06T03:01:11.450Z,4
2017-04-06T03:01:30.093Z,4
2017-04-06T03:01:48.758Z,4
2017-04-06T03:02:07.425Z,4
2017-04-06T03:02:26.071Z,4
2017-04-06T03:02:44.719Z,4
2017-04-06T03:03:03.374Z,4
2017-04-06T03:03:22.019Z,4
2017-04-06T03:03:40.676Z,4
2017-04-06T03:03:59.327Z,4
2017-04-06T03:04:17.974Z,4
2017-04-06T03:04:36.628Z,4
2017-04-06T03:04:55.274Z,4
2017-04-06T03:05:13.961Z,4
2017-04-06T03:05:32.611Z,4
2017-04-06T03:05:51.269Z,4
2017-04-06T03:06:09.920Z,4
2017-04-06T03:06:28.564Z,4
2017-04-06T03:06:47.214Z,4
2017-04-06T03:07:05.868Z,4
2017-04-06T03:07:24.545Z,4
2017-04-06T03:07:43.194Z,4
2017-04-06T03:08:01.841Z,4.1
2017-04-06T03:08:20.499Z,4.1
2017-04-06T03:08:39.149Z,4.1
2017-04-06T03:08:57.799Z,4.1
2017-04-06T03:09:16.453Z,4
2017-04-06T03:09:35.113Z,4.1
2017-04-06T03:09:53.788Z,4
2017-04-06T03:10:12.433Z,4
2017-04-06T03:10:31.086Z,4
2017-04-06T03:10:49.729Z,4
2017-04-06T03:11:08.386Z,4
2017-04-06T03:11:27.034Z,4
2017-04-06T03:11:45.687Z,4
2017-04-06T03:12:04.356Z,4
2017-04-06T03:12:23.012Z,4
2017-04-06T03:12:41.673Z,4
2017-04-06T03:13:00.327Z,4
2017-04-06T03:13:18.997Z,4
2017-04-06T03:13:37.649Z,4
2017-04-06T03:13:56.309Z,4
2017-04-06T03:14:14.963Z,4
2017-04-06T03:14:33.608Z,4
2017-04-06T03:14:52.300Z,4.1
2017-04-06T03:15:10.953Z,4
2017-04-06T03:15:29.609Z,4
2017-04-06T03:15:48.266Z,4.1
2017-04-06T03:16:06.910Z,4.1
2017-04-06T03:16:25.563Z,4
2017-04-06T03:16:44.214Z,4.1
2017-04-06T03:17:02.891Z,4
2017-04-06T03:17:21.541Z,4
2017-04-06T03:17:40.202Z,4.1
2017-04-06T03:17:58.910Z,4
2017-04-06T03:18:17.555Z,4
2017-04-06T03:18:36.212Z,4
2017-04-06T03:18:54.860Z,4.1
2017-04-06T03:19:13.506Z,4
2017-04-06T03:19:32.157Z,4.1
2017-04-06T03:19:50.801Z,4.1
2017-04-06T03:20:09.453Z,4.1
2017-04-06T03:20:28.109Z,4.1
2017-04-06T03:20:46.760Z,4.1
2017-04-06T03:21:05.403Z,4.1
2017-04-06T03:21:24.054Z,4.1
2017-04-06T03:21:42.708Z,4.1
2017-04-06T03:22:01.359Z,4.1
2017-04-06T03:22:20.005Z,4.1
2017-04-06T03:22:38.668Z,4.1
2017-04-06T03:22:57.312Z,4.1
2017-04-06T03:23:15.990Z,4.1
2017-04-06T03:23:34.639Z,4.1
2017-04-06T03:23:53.283Z,4.1
2017-04-06T03:24:11.930Z,4
2017-04-06T03:24:30.579Z,4.1
2017-04-06T03:24:49.232Z,4.1
2017-04-06T03:25:07.882Z,4.1
2017-04-06T03:25:26.548Z,4.1
2017-04-06T03:25:45.200Z,4.1
2017-04-06T03:26:03.892Z,4.1
2017-04-06T03:26:22.530Z,4.1
2017-04-06T03:26:41.190Z,4.1
2017-04-06T03:26:59.848Z,4.1
2017-04-06T03:27:18.498Z,4.1
2017-04-06T03:27:37.179Z,4.1
2017-04-06T03:27:55.819Z,4
2017-04-06T03:28:14.465Z,4.1
2017-04-06T03:28:33.148Z,4.1
2017-04-06T03:28:51.804Z,4.1
2017-04-06T03:29:10.464Z,4.1
2017-04-06T03:29:29.112Z,4.1
2017-04-06T03:29:47.764Z,4.1
2017-04-06T03:30:06.416Z,4.1
2017-04-06T03:30:25.070Z,4.1
2017-04-06T03:30:43.741Z,4.1
2017-04-06T03:31:02.394Z,4.1
2017-04-06T03:31:21.044Z,4.1
2017-04-06T03:31:39.689Z,4.1
2017-04-06T03:31:58.346Z,4.1
2017-04-06T03:32:17.003Z,4.1
2017-04-06T03:32:35.654Z,4.1
2017-04-06T03:32:54.300Z,4.1
2017-04-06T03:33:12.943Z,4.1
2017-04-06T03:33:31.618Z,4.1
2017-04-06T03:33:50.285Z,4.1
2017-04-06T03:34:08.946Z,4.1
2017-04-06T03:34:27.598Z,4
2017-04-06T03:34:46.252Z,4.1
2017-04-06T03:35:04.918Z,4.1
2017-04-06T03:35:23.566Z,4.1
2017-04-06T03:35:42.240Z,4
2017-04-06T03:36:00.893Z,4.1
2017-04-06T03:36:19.546Z,4.1
2017-04-06T03:36:38.195Z,4.1
2017-04-06T03:36:56.845Z,4.1
2017-04-06T03:37:15.495Z,4.1
2017-04-06T03:37:34.136Z,4.1
2017-04-06T03:37:52.788Z,4.1
2017-04-06T03:38:11.436Z,4.1
2017-04-06T03:38:30.085Z,4.1
2017-04-06T03:38:48.777Z,4.1
2017-04-06T03:39:07.453Z,4.1
2017-04-06T03:39:26.109Z,4.1
2017-04-06T03:39:44.771Z,4.1
2017-04-06T03:40:03.421Z,4.1
2017-04-06T03:40:22.084Z,4.1
2017-04-06T03:40:40.729Z,4.1
2017-04-06T03:40:59.382Z,4.1
2017-04-06T03:41:18.044Z,4.1
2017-04-06T03:41:36.695Z,4.1
2017-04-06T03:41:55.353Z,4
2017-04-06T03:42:14.010Z,4.1
2017-04-06T03:42:32.658Z,4.1
2017-04-06T03:42:51.303Z,4.1
2017-04-06T03:43:09.959Z,4
2017-04-06T03:43:28.634Z,4
2017-04-06T03:43:47.289Z,4.1
2017-04-06T03:44:05.946Z,4
2017-04-06T03:44:24.608Z,4.1
2017-04-06T03:44:43.264Z,4
2017-04-06T03:45:01.916Z,4
2017-04-06T03:45:20.571Z,4
2017-04-06T03:45:39.222Z,4
2017-04-06T03:45:57.874Z,4.1
2017-04-06T03:46:16.535Z,4.1
2017-04-06T03:46:35.185Z,4.1
2017-04-06T03:46:53.859Z,4
2017-04-06T03:47:12.506Z,4.1
2017-04-06T03:47:31.155Z,4
2017-04-06T03:47:49.807Z,4.1
2017-04-06T03:48:08.456Z,4.1
2017-04-06T03:48:27.130Z,4.1
2017-04-06T03:48:45.802Z,4.1
2017-04-06T03:49:04.463Z,4.1
2017-04-06T03:49:23.116Z,4.1
2017-04-06T03:49:41.788Z,4.1
2017-04-06T03:50:00.444Z,4.1
2017-04-06T03:50:19.101Z,4.1
2017-04-06T03:50:37.754Z,4.1
2017-04-06T03:50:56.400Z,4.1
2017-04-06T03:51:15.047Z,4.1
2017-04-06T03:51:33.726Z,4.1
2017-04-06T03:51:52.370Z,4.1
2017-04-06T03:52:11.018Z,4.1
2017-04-06T03:52:29.661Z,4.1
2017-04-06T03:52:48.318Z,4.1
2017-04-06T03:53:06.973Z,4.1
2017-04-06T03:53:25.621Z,4.1
2017-04-06T03:53:44.279Z,4
2017-04-06T03:54:02.938Z,4.1
2017-04-06T03:54:21.593Z,4
2017-04-06T03:54:40.247Z,4.1
2017-04-06T03:54:58.915Z,4.1
2017-04-06T03:55:17.576Z,4.1
2017-04-06T03:55:36.234Z,4
2017-04-06T03:55:54.877Z,4.1
2017-04-06T03:56:13.546Z,4
2017-04-06T03:56:32.195Z,4
2017-04-06T03:56:50.850Z,4
2017-04-06T03:57:09.499Z,4
2017-04-06T03:57:28.144Z,4.1
2017-04-06T03:57:46.797Z,4
2017-04-06T03:58:05.448Z,4
2017-04-06T03:58:24.107Z,4
2017-04-06T03:58:42.756Z,4
2017-04-06T03:59:01.412Z,4
2017-04-06T03:59:20.076Z,4.1
2017-04-06T03:59:38.756Z,4.1
2017-04-06T03:59:57.414Z,4.1
2017-04-06T04:00:16.092Z,4.1
2017-04-06T04:00:34.743Z,4.1
2017-04-06T04:00:53.395Z,4.1
2017-04-06T04:01:12.078Z,4.1
2017-04-06T04:01:30.731Z,4
2017-04-06T04:01:49.390Z,4.1
2017-04-06T04:02:08.044Z,4
2017-04-06T04:02:26.695Z,4
2017-04-06T04:02:45.348Z,4
2017-04-06T04:03:04.010Z,4
2017-04-06T04:03:22.663Z,4
2017-04-06T04:03:41.319Z,4
2017-04-06T04:03:59.988Z,4
2017-04-06T04:04:18.673Z,4
2017-04-06T04:04:37.328Z,4
2017-04-06T04:04:55.970Z,4
2017-04-06T04:05:14.627Z,4
2017-04-06T04:05:33.283Z,4
2017-04-06T04:05:51.934Z,4
2017-04-06T04:06:10.576Z,4
2017-04-06T04:06:29.234Z,4
2017-04-06T04:06:47.880Z,4
2017-04-06T04:07:06.530Z,4
2017-04-06T04:07:25.183Z,3.9
2017-04-06T04:07:43.835Z,3.9
2017-04-06T04:08:02.487Z,3.9
2017-04-06T04:08:21.135Z,3.9
2017-04-06T04:08:39.781Z,3.9
2017-04-06T04:08:58.440Z,3.9
2017-04-06T04:09:17.091Z,3.9
2017-04-06T04:09:35.734Z,3.9
2017-04-06T04:09:54.385Z,3.9
2017-04-06T04:10:13.031Z,3.9
2017-04-06T04:10:31.675Z,3.9
2017-04-06T04:10:50.372Z,3.9
2017-04-06T04:11:09.021Z,3.9
2017-04-06T04:11:27.667Z,3.9
2017-04-06T04:11:46.317Z,3.9
2017-04-06T04:12:04.970Z,3.9
2017-04-06T04:12:23.650Z,3.9
2017-04-06T04:12:42.294Z,3.9
2017-04-06T04:13:00.944Z,3.9
2017-04-06T04:13:19.591Z,3.8
2017-04-06T04:13:38.239Z,3.8
2017-04-06T04:13:56.904Z,3.8
2017-04-06T04:14:15.550Z,3.8
2017-04-06T04:14:34.210Z,3.8
2017-04-06T04:14:52.863Z,3.8
2017-04-06T04:15:11.522Z,3.8
2017-04-06T04:15:30.177Z,3.8
2017-04-06T04:15:48.830Z,3.8
2017-04-06T04:16:07.511Z,3.8
2017-04-06T04:16:26.178Z,3.8
2017-04-06T04:16:44.832Z,3.8
2017-04-06T04:17:03.514Z,3.8
2017-04-06T04:17:22.172Z,3.8
2017-04-06T04:17:40.822Z,3.8
2017-04-06T04:17:59.475Z,3.8
2017-04-06T04:18:18.141Z,3.8
2017-04-06T04:18:36.801Z,3.8
2017-04-06T04:18:55.447Z,3.8
2017-04-06T04:19:14.105Z,3.7
2017-04-06T04:19:32.774Z,3.7
2017-04-06T04:19:51.425Z,3.7
2017-04-06T04:20:10.084Z,3.7
2017-04-06T04:20:28.759Z,3.7
2017-04-06T04:20:47.431Z,3.7
2017-04-06T04:21:06.094Z,3.7
2017-04-06T04:21:24.777Z,3.7
2017-04-06T04:21:43.451Z,3.7
2017-04-06T04:22:02.111Z,3.7
2017-04-06T04:22:20.755Z,3.8
2017-04-06T04:22:39.413Z,3.7
2017-04-06T04:22:58.069Z,3.7